Time;durP1;ratioP1;P1;durP2;ratioP2;P2;SDS_P1;SDS_P2;PMS_P1;PMS_P2;Temp;Humidity;BMP_temperature;BMP_pressure;BME280_temperature;BME280_humidity;BME280_pressure;Samples;Min_cycle;Max_cycle;Signal;HPM_P1;HPM_P2
2023/07/10 00:02:09;;;;;;;0.30;0.30;;;24.50;79.20;;;;;;4377101;32;20141;-78
2023/07/10 00:04:35;;;;;;;1.85;0.68;;;24.30;79.30;;;;;;4378660;32;20074;-76
2023/07/10 00:07:00;;;;;;;0.30;0.30;;;24.40;77.70;;;;;;4379646;32;20116;-77
2023/07/10 00:09:26;;;;;;;0.47;0.40;;;24.40;79.50;;;;;;4379704;32;20140;-77
2023/07/10 00:11:51;;;;;;;0.30;0.30;;;24.30;80.00;;;;;;4379101;32;20098;-78
2023/07/10 00:14:21;;;;;;;0.40;0.40;;;24.30;80.80;;;;;;4378491;32;20095;-77
2023/07/10 00:16:47;;;;;;;0.70;0.63;;;24.30;80.90;;;;;;4375775;32;20285;-77
2023/07/10 00:19:14;;;;;;;0.60;0.43;;;24.30;80.30;;;;;;4377822;32;20046;-77
2023/07/10 00:21:40;;;;;;;0.62;0.52;;;24.30;81.20;;;;;;4376514;32;20126;-76
2023/07/10 00:24:06;;;;;;;0.50;0.50;;;24.30;80.80;;;;;;4379878;32;20132;-76
2023/07/10 00:26:32;;;;;;;0.50;0.50;;;24.20;81.50;;;;;;4379818;32;20059;-76
2023/07/10 00:29:00;;;;;;;1.33;0.80;;;24.20;81.10;;;;;;4379825;32;20102;-76
2023/07/10 00:31:26;;;;;;;0.77;0.50;;;24.00;82.30;;;;;;4378743;32;20054;-77
2023/07/10 00:33:52;;;;;;;3.65;1.00;;;23.80;83.40;;;;;;4378638;32;20110;-77
2023/07/10 00:36:38;;;;;;;0.30;0.30;;;23.90;83.40;;;;;;4380303;32;20055;-77
2023/07/10 00:39:27;;;;;;;0.32;0.32;;;23.90;82.70;;;;;;4379845;32;20097;-77
2023/07/10 00:41:57;;;;;;;0.43;0.43;;;24.00;82.50;;;;;;4379315;32;20081;-75
2023/07/10 00:44:30;;;;;;;0.75;0.62;;;24.00;82.50;;;;;;4380926;32;20074;-76
2023/07/10 00:46:59;;;;;;;1.27;0.57;;;23.80;83.40;;;;;;4382361;32;20456;-77
2023/07/10 00:49:37;;;;;;;1.02;0.80;;;23.80;84.40;;;;;;4378493;32;20137;-78
2023/07/10 00:52:25;;;;;;;0.37;0.37;;;23.80;84.00;;;;;;4377619;32;20655;-78
2023/07/10 00:54:54;;;;;;;0.57;0.50;;;23.90;81.50;;;;;;4375520;32;20121;-77
2023/07/10 00:57:22;;;;;;;0.30;0.30;;;24.00;79.60;;;;;;4379478;32;20121;-78
2023/07/10 00:59:50;;;;;;;0.40;0.40;;;24.00;78.60;;;;;;4378562;32;20163;-78
2023/07/10 01:02:18;;;;;;;1.23;0.50;;;24.00;78.00;;;;;;4369652;32;20610;-77
2023/07/10 01:04:47;;;;;;;0.85;0.70;;;24.00;78.20;;;;;;4378593;32;21477;-78
2023/07/10 01:07:16;;;;;;;0.65;0.65;;;24.10;77.50;;;;;;4378509;32;20079;-77
2023/07/10 01:09:45;;;;;;;0.30;0.30;;;24.00;77.60;;;;;;4380078;32;20174;-78
2023/07/10 01:12:11;;;;;;;0.40;0.40;;;24.10;77.30;;;;;;4378861;32;20090;-78
2023/07/10 01:14:37;;;;;;;0.30;0.30;;;24.10;77.60;;;;;;4378253;32;20074;-77
2023/07/10 01:17:04;;;;;;;0.43;0.43;;;24.20;77.10;;;;;;4378532;32;20145;-78
2023/07/10 01:19:32;;;;;;;1.55;0.50;;;24.10;77.70;;;;;;4377369;32;20073;-78
2023/07/10 01:21:57;;;;;;;0.70;0.52;;;24.00;77.50;;;;;;4377060;32;20075;-76
2023/07/10 01:24:23;;;;;;;1.65;0.82;;;23.90;78.90;;;;;;4378146;32;20086;-76
2023/07/10 01:26:49;;;;;;;1.08;0.50;;;24.00;79.00;;;;;;4377755;32;20531;-76
2023/07/10 01:29:36;;;;;;;0.73;0.73;;;24.00;79.50;;;;;;4377855;32;20083;-76
2023/07/10 01:32:04;;;;;;;0.60;0.55;;;23.90;79.50;;;;;;4374656;32;20081;-76
2023/07/10 01:34:38;;;;;;;0.60;0.60;;;23.70;79.40;;;;;;4377832;32;20074;-76
2023/07/10 01:37:05;;;;;;;0.47;0.47;;;23.80;80.60;;;;;;4378220;32;20635;-75
2023/07/10 01:39:42;;;;;;;0.43;0.35;;;23.80;80.90;;;;;;4379109;32;20510;-75
2023/07/10 01:42:08;;;;;;;1.83;1.23;;;23.70;81.10;;;;;;4376163;32;20137;-78
2023/07/10 01:44:36;;;;;;;7.68;1.45;;;23.70;85.00;;;;;;4377910;32;20541;-77
2023/07/10 01:47:04;;;;;;;0.30;0.30;;;23.50;84.20;;;;;;4378835;32;20332;-77
2023/07/10 01:49:35;;;;;;;3.17;0.50;;;23.50;84.90;;;;;;4377779;32;20086;-77
2023/07/10 01:52:03;;;;;;;0.37;0.37;;;23.50;84.00;;;;;;4375567;32;20063;-76
2023/07/10 01:54:28;;;;;;;0.73;0.62;;;23.40;87.60;;;;;;4376644;32;20093;-75
2023/07/10 01:56:54;;;;;;;0.20;0.20;;;23.50;83.70;;;;;;4380548;32;20431;-77
2023/07/10 01:59:19;;;;;;;0.98;0.70;;;23.60;85.00;;;;;;4380086;32;20451;-77
2023/07/10 02:01:46;;;;;;;0.40;0.40;;;23.60;85.70;;;;;;4376203;32;20070;-75
2023/07/10 02:04:12;;;;;;;0.30;0.30;;;23.70;87.50;;;;;;4381529;32;20399;-76
2023/07/10 02:06:39;;;;;;;0.73;0.43;;;23.60;87.80;;;;;;4381810;32;20078;-76
2023/07/10 02:09:05;;;;;;;4.78;0.65;;;23.40;88.70;;;;;;4381770;32;20083;-76
2023/07/10 02:11:31;;;;;;;0.50;0.50;;;23.40;87.00;;;;;;4380544;32;20320;-76
2023/07/10 02:13:56;;;;;;;0.60;0.60;;;23.40;84.60;;;;;;4384068;32;20115;-77
2023/07/10 02:16:22;;;;;;;0.70;0.57;;;23.40;86.80;;;;;;4381289;32;20059;-78
2023/07/10 02:18:47;;;;;;;23.58;1.05;;;23.50;85.60;;;;;;4382761;32;20145;-77
2023/07/10 02:21:13;;;;;;;0.65;0.40;;;23.50;83.40;;;;;;4382535;32;20086;-78
2023/07/10 02:23:40;;;;;;;3.42;0.55;;;23.60;85.60;;;;;;4380382;32;20101;-78
2023/07/10 02:26:06;;;;;;;0.30;0.30;;;23.50;84.60;;;;;;4377758;32;20095;-78
2023/07/10 02:28:32;;;;;;;0.45;0.45;;;23.60;84.80;;;;;;4378862;32;20078;-76
2023/07/10 02:30:57;;;;;;;0.65;0.43;;;23.50;85.40;;;;;;4379877;32;20058;-78
2023/07/10 02:33:23;;;;;;;0.75;0.57;;;23.40;86.40;;;;;;4379540;32;20789;-75
2023/07/10 02:35:49;;;;;;;0.70;0.50;;;23.40;86.00;;;;;;4381565;32;20091;-76
2023/07/10 02:38:14;;;;;;;0.52;0.50;;;23.40;85.90;;;;;;4380943;32;20141;-79
2023/07/10 02:40:42;;;;;;;0.32;0.32;;;23.40;85.70;;;;;;4381626;32;20074;-78
2023/07/10 02:43:07;;;;;;;2.75;0.40;;;23.30;85.50;;;;;;4380101;32;20153;-77
2023/07/10 02:45:34;;;;;;;0.52;0.32;;;23.30;86.20;;;;;;4381326;32;20127;-77
2023/07/10 02:48:00;;;;;;;0.43;0.43;;;23.40;84.80;;;;;;4380903;32;20125;-78
2023/07/10 02:50:25;;;;;;;0.30;0.30;;;23.40;86.00;;;;;;4382351;32;20342;-77
2023/07/10 02:52:51;;;;;;;1.15;0.80;;;23.30;85.80;;;;;;4380817;32;20098;-78
2023/07/10 02:55:17;;;;;;;0.55;0.50;;;23.30;86.50;;;;;;4381134;32;20083;-78
2023/07/10 02:57:42;;;;;;;0.37;0.37;;;23.20;85.20;;;;;;4381803;32;20541;-79
2023/07/10 03:00:08;;;;;;;2.35;0.80;;;23.20;84.70;;;;;;4382223;32;20073;-78
2023/07/10 03:02:33;;;;;;;0.52;0.52;;;23.30;85.40;;;;;;4379122;32;20094;-77
2023/07/10 03:04:59;;;;;;;0.37;0.37;;;23.30;84.90;;;;;;4378711;32;20066;-79
2023/07/10 03:07:25;;;;;;;11.65;0.82;;;23.30;85.80;;;;;;4379996;32;20216;-78
2023/07/10 03:09:50;;;;;;;0.40;0.40;;;23.20;85.80;;;;;;4378655;32;20081;-78
2023/07/10 03:12:16;;;;;;;0.50;0.50;;;23.20;85.30;;;;;;4379141;32;20518;-77
2023/07/10 03:14:41;;;;;;;0.57;0.30;;;23.20;84.40;;;;;;4383837;32;20113;-77
2023/07/10 03:17:08;;;;;;;0.65;0.37;;;23.20;84.00;;;;;;4379987;32;20516;-77
2023/07/10 03:19:34;;;;;;;0.30;0.30;;;23.20;83.70;;;;;;4380258;32;20560;-77
2023/07/10 03:21:59;;;;;;;2.83;0.47;;;23.20;85.30;;;;;;4379821;32;20121;-76
2023/07/10 03:24:25;;;;;;;1.48;0.77;;;23.10;87.90;;;;;;4379419;32;20531;-76
2023/07/10 03:26:51;;;;;;;2.12;1.23;;;23.10;86.80;;;;;;4380912;32;20455;-76
2023/07/10 03:29:16;;;;;;;0.45;0.45;;;23.00;85.90;;;;;;4379914;32;20115;-77
2023/07/10 03:31:43;;;;;;;0.65;0.52;;;23.00;85.50;;;;;;4380988;32;20141;-77
2023/07/10 03:34:11;;;;;;;0.57;0.57;;;23.10;84.00;;;;;;4378467;32;20083;-77
2023/07/10 03:36:37;;;;;;;0.30;0.30;;;23.10;84.60;;;;;;4378210;32;20071;-76
2023/07/10 03:39:03;;;;;;;0.80;0.80;;;23.20;85.40;;;;;;4378397;32;20142;-75
2023/07/10 03:41:28;;;;;;;2.45;0.95;;;23.10;87.60;;;;;;4378103;32;20541;-76
2023/07/10 03:43:55;;;;;;;0.50;0.50;;;23.00;87.60;;;;;;4379012;32;20094;-78
2023/07/10 03:46:21;;;;;;;0.40;0.40;;;22.90;88.00;;;;;;4381180;32;20098;-77
2023/07/10 03:48:47;;;;;;;0.50;0.37;;;22.90;87.80;;;;;;4379373;32;20070;-78
2023/07/10 03:51:14;;;;;;;0.35;0.35;;;22.90;87.20;;;;;;4378518;32;20098;-77
2023/07/10 03:53:39;;;;;;;0.57;0.57;;;23.00;87.60;;;;;;4379467;32;20463;-77
2023/07/10 03:56:06;;;;;;;0.62;0.62;;;22.90;87.60;;;;;;4383367;32;20075;-77
2023/07/10 03:58:33;;;;;;;0.30;0.30;;;22.80;88.00;;;;;;4379606;32;20082;-78
2023/07/10 04:01:00;;;;;;;0.35;0.35;;;22.70;87.00;;;;;;4380898;32;20126;-77
2023/07/10 04:03:28;;;;;;;0.50;0.50;;;22.80;86.60;;;;;;4382191;32;20050;-78
2023/07/10 04:05:57;;;;;;;0.85;0.40;;;22.80;86.60;;;;;;4377568;32;20094;-77
2023/07/10 04:08:28;;;;;;;0.50;0.50;;;22.80;86.90;;;;;;4380988;32;20106;-78
2023/07/10 04:10:57;;;;;;;0.75;0.75;;;22.80;86.50;;;;;;4379040;32;20481;-78
2023/07/10 04:13:24;;;;;;;1.67;0.98;;;22.80;86.00;;;;;;4377274;32;20563;-79
2023/07/10 04:16:08;;;;;;;0.95;0.47;;;22.90;86.10;;;;;;4375476;32;20082;-78
2023/07/10 04:18:35;;;;;;;1.00;0.80;;;22.90;85.90;;;;;;4377985;32;20511;-76
2023/07/10 04:21:03;;;;;;;0.45;0.43;;;23.00;85.60;;;;;;4374596;32;20163;-76
2023/07/10 04:23:29;;;;;;;0.30;0.30;;;23.00;85.10;;;;;;4376096;32;20456;-78
2023/07/10 04:25:55;;;;;;;0.57;0.57;;;23.00;85.30;;;;;;4379141;32;20542;-77
2023/07/10 04:28:21;;;;;;;0.25;0.25;;;22.90;85.40;;;;;;4380282;32;20676;-78
2023/07/10 04:30:47;;;;;;;0.57;0.55;;;22.90;85.80;;;;;;4377204;32;20161;-77
2023/07/10 04:33:14;;;;;;;0.45;0.45;;;23.00;85.70;;;;;;4379181;32;20412;-78
2023/07/10 04:35:41;;;;;;;0.30;0.30;;;23.00;86.00;;;;;;4380102;32;20125;-78
2023/07/10 04:38:07;;;;;;;1.15;0.70;;;22.90;86.20;;;;;;4379091;32;20074;-77
2023/07/10 04:40:33;;;;;;;1.42;0.70;;;22.90;86.30;;;;;;4381071;32;20062;-78
2023/07/10 04:42:59;;;;;;;1.58;0.70;;;23.00;86.50;;;;;;4379034;32;21143;-76
2023/07/10 04:45:24;;;;;;;0.55;0.55;;;23.10;86.60;;;;;;4377475;32;20110;-78
2023/07/10 04:47:51;;;;;;;0.35;0.35;;;23.10;86.30;;;;;;4380287;32;20074;-79
2023/07/10 04:50:16;;;;;;;0.32;0.32;;;23.30;86.50;;;;;;4379437;32;20785;-77
2023/07/10 04:52:42;;;;;;;3.00;0.55;;;23.30;86.50;;;;;;4375957;32;20082;-78
2023/07/10 04:55:07;;;;;;;0.45;0.45;;;23.40;86.20;;;;;;4380020;32;20082;-79
2023/07/10 04:57:33;;;;;;;0.60;0.60;;;23.30;86.40;;;;;;4376888;32;20070;-77
2023/07/10 04:59:58;;;;;;;0.93;0.90;;;23.20;87.40;;;;;;4378657;32;20125;-78
2023/07/10 05:02:24;;;;;;;0.50;0.50;;;23.20;87.80;;;;;;4369363;32;20098;-77
2023/07/10 05:04:50;;;;;;;0.30;0.30;;;23.20;86.60;;;;;;4372674;32;20074;-78
2023/07/10 05:07:15;;;;;;;0.40;0.40;;;23.30;86.70;;;;;;4375461;32;20134;-78
2023/07/10 05:09:41;;;;;;;0.80;0.70;;;23.30;88.60;;;;;;4374655;32;20089;-77
2023/07/10 05:12:07;;;;;;;0.62;0.62;;;23.30;88.70;;;;;;4376987;32;20061;-79
2023/07/10 05:14:32;;;;;;;0.22;0.22;;;23.30;90.30;;;;;;4378180;32;20448;-78
2023/07/10 05:16:58;;;;;;;0.30;0.30;;;23.00;95.10;;;;;;4368280;32;20638;-77
2023/07/10 05:19:24;;;;;;;2.10;0.93;;;22.60;98.00;;;;;;4368414;32;20107;-78
2023/07/10 05:21:49;;;;;;;1.17;0.90;;;22.40;99.90;;;;;;4374653;32;21262;-78
2023/07/10 05:24:15;;;;;;;1.65;0.90;;;21.90;99.90;;;;;;4375648;32;20413;-77
2023/07/10 05:26:40;;;;;;;0.65;0.65;;;21.40;99.90;;;;;;4364257;32;20098;-77
2023/07/10 05:29:06;;;;;;;0.45;0.40;;;21.20;99.90;;;;;;4368956;32;20768;-77
2023/07/10 05:31:32;;;;;;;0.65;0.52;;;21.00;99.90;;;;;;4351000;32;20067;-78
2023/07/10 05:33:58;;;;;;;1.77;0.98;;;21.00;99.90;;;;;;4371742;32;20432;-78
2023/07/10 05:36:24;;;;;;;1.10;0.60;;;20.90;99.90;;;;;;4373229;32;20141;-76
2023/07/10 05:38:50;;;;;;;0.60;0.60;;;20.80;99.90;;;;;;4372155;32;20098;-77
2023/07/10 05:41:21;;;;;;;12.95;0.98;;;20.90;99.90;;;;;;4374550;32;20486;-76
2023/07/10 05:43:49;;;;;;;1.45;0.85;;;20.70;99.90;;;;;;4374724;32;20125;-75
2023/07/10 05:46:15;;;;;;;0.62;0.62;;;20.50;99.90;;;;;;4377306;32;20086;-75
2023/07/10 05:48:41;;;;;;;0.73;0.73;;;20.40;99.90;;;;;;4378857;32;20409;-76
2023/07/10 05:51:06;;;;;;;2.00;0.73;;;20.20;99.90;;;;;;4379332;32;20082;-75
2023/07/10 05:53:33;;;;;;;5.45;1.12;;;20.10;99.90;;;;;;4378396;32;20078;-75
2023/07/10 05:56:00;;;;;;;0.57;0.57;;;20.20;99.90;;;;;;4380891;32;20545;-75
2023/07/10 05:58:27;;;;;;;2.40;0.98;;;20.30;99.90;;;;;;4378194;32;20070;-77
2023/07/10 06:00:55;;;;;;;0.37;0.37;;;20.40;99.90;;;;;;4376477;32;20526;-75
2023/07/10 06:03:21;;;;;;;0.47;0.47;;;20.50;99.90;;;;;;4377740;32;20082;-75
2023/07/10 06:06:05;;;;;;;0.40;0.40;;;20.50;99.90;;;;;;4376019;32;20443;-75
2023/07/10 06:08:32;;;;;;;0.40;0.40;;;20.50;99.90;;;;;;4377232;32;20194;-74
2023/07/10 06:10:58;;;;;;;1.00;0.90;;;20.40;99.90;;;;;;4375083;32;20101;-75
2023/07/10 06:13:25;;;;;;;2.80;1.42;;;20.30;99.90;;;;;;4376752;32;20115;-74
2023/07/10 06:15:53;;;;;;;0.50;0.50;;;20.20;99.90;;;;;;4376374;32;20094;-74
2023/07/10 06:18:20;;;;;;;6.22;1.48;;;20.20;99.90;;;;;;4376095;32;20141;-75
2023/07/10 06:20:54;;;;;;;0.70;0.70;;;20.30;99.90;;;;;;4373642;32;20097;-75
2023/07/10 06:23:22;;;;;;;2.47;0.88;;;20.40;99.90;;;;;;4374534;32;20094;-75
2023/07/10 06:25:48;;;;;;;0.60;0.60;;;20.50;99.90;;;;;;4368436;32;20511;-76
2023/07/10 06:28:14;;;;;;;6.15;1.83;;;20.60;99.90;;;;;;4373522;32;20542;-77
2023/07/10 06:30:41;;;;;;;0.75;0.65;;;20.60;99.90;;;;;;4369299;32;20066;-76
2023/07/10 06:33:07;;;;;;;0.55;0.55;;;20.60;99.90;;;;;;4371068;32;20154;-78
2023/07/10 06:35:33;;;;;;;0.80;0.68;;;20.60;99.90;;;;;;4370710;32;20081;-78
2023/07/10 06:37:59;;;;;;;0.65;0.65;;;20.70;99.90;;;;;;4369360;32;20067;-79
2023/07/10 06:40:25;;;;;;;0.52;0.52;;;20.80;99.90;;;;;;4372317;32;20090;-78
2023/07/10 06:42:51;;;;;;;0.40;0.40;;;20.90;99.90;;;;;;4370272;32;20070;-78
2023/07/10 06:45:17;;;;;;;0.40;0.40;;;20.90;99.90;;;;;;4367584;32;20543;-77
2023/07/10 06:47:45;;;;;;;1.40;1.30;;;20.90;99.90;;;;;;4372226;32;20126;-78
2023/07/10 06:50:13;;;;;;;0.60;0.60;;;21.00;99.90;;;;;;4381820;32;20100;-78
2023/07/10 06:52:41;;;;;;;0.30;0.30;;;21.10;99.90;;;;;;4369638;32;20082;-77
2023/07/10 06:55:08;;;;;;;0.60;0.60;;;21.30;99.90;;;;;;4371748;32;20089;-77
2023/07/10 06:57:34;;;;;;;2.78;0.70;;;21.30;99.90;;;;;;4374843;32;20180;-78
2023/07/10 07:00:00;;;;;;;0.70;0.55;;;21.30;99.90;;;;;;4369463;32;20235;-78
2023/07/10 07:02:26;;;;;;;1.83;0.80;;;21.40;99.90;;;;;;4359505;32;22049;-76
2023/07/10 07:04:51;;;;;;;0.77;0.77;;;21.40;99.90;;;;;;4359447;32;20086;-76
2023/07/10 07:07:17;;;;;;;0.88;0.60;;;21.50;99.90;;;;;;4363197;32;20070;-76
2023/07/10 07:09:43;;;;;;;0.50;0.50;;;21.60;99.90;;;;;;4361338;32;20178;-76
2023/07/10 07:12:10;;;;;;;1.33;0.80;;;21.60;99.90;;;;;;4368975;32;20154;-77
2023/07/10 07:14:35;;;;;;;1.30;1.02;;;21.60;99.90;;;;;;4371387;32;20157;-76
2023/07/10 07:17:01;;;;;;;0.50;0.50;;;21.70;99.90;;;;;;4367008;32;20058;-76
2023/07/10 07:19:26;;;;;;;3.33;0.75;;;21.70;99.90;;;;;;4371081;32;20098;-76
2023/07/10 07:21:52;;;;;;;3.70;1.35;;;21.70;99.90;;;;;;4372608;32;21321;-77
2023/07/10 07:24:17;;;;;;;2.37;1.27;;;21.80;99.90;;;;;;4376270;32;20118;-76
2023/07/10 07:26:43;;;;;;;0.68;0.68;;;21.80;99.90;;;;;;4367060;32;20953;-76
2023/07/10 07:29:08;;;;;;;1.70;1.05;;;21.90;99.90;;;;;;4368841;32;20409;-77
2023/07/10 07:31:34;;;;;;;1.17;0.90;;;22.00;99.90;;;;;;4372860;32;20502;-77
2023/07/10 07:33:59;;;;;;;2.40;1.10;;;22.20;99.90;;;;;;4371062;32;20707;-75
2023/07/10 07:36:25;;;;;;;2.53;0.85;;;22.40;99.90;;;;;;4370866;32;20092;-76
2023/07/10 07:38:51;;;;;;;6.50;1.00;;;22.50;99.90;;;;;;4369426;32;20208;-75
2023/07/10 07:41:16;;;;;;;0.98;0.55;;;22.80;99.90;;;;;;4362694;32;20149;-76
2023/07/10 07:43:42;;;;;;;3.85;1.05;;;23.00;99.90;;;;;;4363901;32;20197;-76
2023/07/10 07:46:07;;;;;;;0.60;0.50;;;23.20;99.90;;;;;;4368343;32;20098;-77
2023/07/10 07:48:33;;;;;;;0.40;0.40;;;23.40;99.90;;;;;;4352720;32;20115;-75
2023/07/10 07:51:01;;;;;;;0.35;0.35;;;23.50;99.90;;;;;;4363146;32;20137;-76
2023/07/10 07:53:29;;;;;;;2.53;0.88;;;23.70;99.90;;;;;;4366764;32;20512;-75
2023/07/10 07:55:55;;;;;;;0.45;0.45;;;23.80;99.90;;;;;;4366650;32;20086;-75
2023/07/10 07:58:20;;;;;;;0.70;0.70;;;23.90;99.90;;;;;;4364131;32;20125;-75
2023/07/10 08:00:48;;;;;;;1.65;0.70;;;24.00;99.90;;;;;;4364949;32;20476;-77
2023/07/10 08:03:14;;;;;;;0.70;0.70;;;24.10;99.90;;;;;;4369597;32;20090;-77
2023/07/10 08:05:40;;;;;;;0.52;0.52;;;24.40;99.90;;;;;;4364650;32;20112;-75
2023/07/10 08:08:07;;;;;;;3.53;1.80;;;24.60;99.90;;;;;;4371930;32;20408;-75
2023/07/10 08:10:39;;;;;;;1.30;0.80;;;24.70;99.90;;;;;;4372516;32;20099;-76
2023/07/10 08:13:05;;;;;;;4.50;1.25;;;24.80;99.90;;;;;;4361062;32;20882;-74
2023/07/10 08:15:31;;;;;;;0.62;0.60;;;24.90;99.90;;;;;;4365649;32;20483;-76
2023/07/10 08:17:57;;;;;;;2.00;1.02;;;25.10;99.90;;;;;;4364711;32;20154;-77
2023/07/10 08:20:22;;;;;;;3.45;1.12;;;25.20;99.90;;;;;;4358257;32;20098;-76
2023/07/10 08:22:48;;;;;;;1.85;1.10;;;25.30;99.90;;;;;;4365940;32;20094;-76
2023/07/10 08:25:13;;;;;;;1.37;0.40;;;25.40;99.90;;;;;;4367501;32;20139;-76
2023/07/10 08:27:41;;;;;;;0.85;0.70;;;25.40;99.90;;;;;;4363984;32;20077;-74
2023/07/10 08:30:07;;;;;;;0.32;0.32;;;25.40;99.90;;;;;;4367168;32;21315;-76
2023/07/10 08:32:32;;;;;;;0.25;0.25;;;25.50;99.90;;;;;;4367396;32;20067;-76
2023/07/10 08:34:58;;;;;;;1.40;0.68;;;25.70;99.90;;;;;;4377055;32;20058;-74
2023/07/10 08:37:25;;;;;;;1.45;0.95;;;25.80;99.90;;;;;;4365282;32;20384;-75
2023/07/10 08:39:50;;;;;;;1.45;0.85;;;25.90;99.90;;;;;;4371674;32;20078;-75
2023/07/10 08:42:24;;;;;;;0.90;0.75;;;25.90;99.90;;;;;;4372516;32;20094;-76
2023/07/10 08:44:51;;;;;;;6.00;0.98;;;26.00;99.90;;;;;;4373090;32;20097;-75
2023/07/10 08:47:21;;;;;;;0.52;0.52;;;26.10;99.90;;;;;;4374269;32;20519;-76
2023/07/10 08:49:54;;;;;;;0.30;0.30;;;26.20;99.90;;;;;;4374963;32;20057;-77
2023/07/10 08:52:49;;;;;;;0.45;0.43;;;26.40;99.90;;;;;;4373363;32;20594;-77
2023/07/10 08:55:27;;;;;;;0.40;0.40;;;26.60;99.90;;;;;;4374201;32;21767;-75
2023/07/10 08:57:59;;;;;;;0.52;0.52;;;26.50;99.90;;;;;;4366444;32;20645;-79
2023/07/10 09:00:26;;;;;;;1.67;1.17;;;26.50;99.90;;;;;;4372046;32;20090;-81
2023/07/10 09:03:02;;;;;;;2.28;0.80;;;26.70;99.90;;;;;;4369197;32;21337;-77
2023/07/10 09:05:34;;;;;;;1.05;0.52;;;26.80;99.90;;;;;;4369084;32;21133;-78
2023/07/10 09:08:04;;;;;;;0.47;0.47;;;26.90;99.90;;;;;;4371835;32;20463;-80
2023/07/10 09:10:40;;;;;;;;;;;27.00;99.90;;;;;;4374360;32;20552;-78
2023/07/10 09:13:18;;;;;;;0.68;0.62;;;27.00;99.90;;;;;;4370687;32;19961;-81
2023/07/10 09:15:51;;;;;;;2.08;0.30;;;27.20;99.90;;;;;;4365019;32;20102;-80
2023/07/10 09:18:22;;;;;;;1.77;0.70;;;27.30;99.50;;;;;;4374268;32;20083;-79
2023/07/10 09:20:53;;;;;;;2.17;1.30;;;27.10;98.90;;;;;;4372526;32;20078;-80
2023/07/10 09:23:24;;;;;;;0.50;0.50;;;27.10;99.50;;;;;;4380443;32;20594;-80
2023/07/10 09:25:55;;;;;;;0.60;0.60;;;27.10;99.50;;;;;;4373252;32;20058;-78
2023/07/10 09:28:23;;;;;;;0.70;0.40;;;27.30;99.90;;;;;;4377412;32;20085;-82
2023/07/10 09:30:58;;;;;;;0.55;0.55;;;27.30;99.10;;;;;;4371840;32;20108;-80
2023/07/10 09:33:44;;;;;;;0.85;0.65;;;27.50;99.00;;;;;;4373672;32;20566;-81
2023/07/10 09:36:13;;;;;;;1.17;0.57;;;27.70;99.50;;;;;;4375802;32;20074;-78
2023/07/10 09:38:42;;;;;;;0.35;0.35;;;27.80;98.60;;;;;;4375328;32;20114;-78
2023/07/10 09:41:26;;;;;;;1.27;0.88;;;27.70;98.80;;;;;;4374821;32;20085;-81
2023/07/10 09:43:57;;;;;;;0.47;0.47;;;27.70;98.10;;;;;;4366384;32;20086;-78
2023/07/10 09:46:28;;;;;;;0.75;0.75;;;27.90;99.80;;;;;;4368925;32;20547;-77
2023/07/10 09:48:56;;;;;;;1.58;0.70;;;28.20;99.40;;;;;;4362393;32;20129;-79
2023/07/10 09:51:23;;;;;;;0.40;0.40;;;28.10;98.20;;;;;;4371504;32;20087;-79
2023/07/10 09:53:52;;;;;;;0.40;0.40;;;27.80;99.30;;;;;;4370862;32;20066;-78
2023/07/10 09:56:27;;;;;;;0.47;0.47;;;27.80;98.90;;;;;;4378754;32;20087;-77
2023/07/10 09:58:54;;;;;;;0.37;0.37;;;28.00;99.90;;;;;;4367735;32;20546;-76
2023/07/10 10:01:25;;;;;;;1.87;0.50;;;28.20;98.40;;;;;;4372414;32;20583;-81
2023/07/10 10:03:53;;;;;;;0.30;0.30;;;28.60;99.30;;;;;;4369647;32;20598;-77
2023/07/10 10:06:22;;;;;;;0.45;0.45;;;28.60;98.10;;;;;;4372506;32;20089;-78
2023/07/10 10:08:49;;;;;;;0.65;0.65;;;28.50;98.60;;;;;;4372946;32;20087;-80
2023/07/10 10:11:15;;;;;;;0.65;0.40;;;28.60;98.70;;;;;;4373079;32;20452;-77
2023/07/10 10:13:47;;;;;;;2.33;0.60;;;28.60;97.60;;;;;;4369701;32;20127;-77
2023/07/10 10:16:37;;;;;;;0.47;0.47;;;28.90;97.40;;;;;;4374362;32;20090;-79
2023/07/10 10:19:31;;;;;;;1.30;0.90;;;29.10;96.80;;;;;;4373307;32;20509;-78
2023/07/10 10:21:57;;;;;;;0.20;0.20;;;29.40;97.20;;;;;;4347202;32;20087;-78
2023/07/10 10:24:25;;;;;;;0.35;0.32;;;29.50;96.60;;;;;;4367675;32;21106;-77
2023/07/10 10:27:09;;;;;;;0.37;0.37;;;29.60;96.90;;;;;;4368062;32;20098;-78
2023/07/10 10:29:50;;;;;;;0.85;0.60;;;29.60;94.50;;;;;;4366545;32;20093;-78
2023/07/10 10:32:27;;;;;;;0.65;0.40;;;29.70;95.10;;;;;;4376413;32;20086;-76
2023/07/10 10:35:08;;;;;;;0.30;0.30;;;29.80;94.40;;;;;;4373469;32;20084;-76
2023/07/10 10:37:58;;;;;;;0.30;0.30;;;29.70;95.10;;;;;;4374225;32;20456;-76
2023/07/10 10:40:26;;;;;;;;;;;30.00;94.70;;;;;;4369669;32;20325;-74
2023/07/10 10:43:12;;;;;;;0.30;0.30;;;30.00;95.10;;;;;;4370551;32;19952;-75
2023/07/10 10:45:46;;;;;;;0.40;0.40;;;30.30;94.90;;;;;;4372650;32;20107;-77
2023/07/10 10:48:22;;;;;;;0.85;0.37;;;30.60;93.10;;;;;;4368075;32;20070;-77
2023/07/10 10:51:28;;;;;;;0.20;0.20;;;30.60;92.70;;;;;;4372553;32;20083;-79
2023/07/10 10:54:17;;;;;;;1.40;0.88;;;30.50;92.90;;;;;;4364434;32;20101;-75
2023/07/10 10:56:48;;;;;;;0.75;0.70;;;30.50;92.90;;;;;;4364632;32;20071;-76
2023/07/10 10:59:28;;;;;;;1.00;0.57;;;30.00;93.30;;;;;;4373835;32;20074;-76
2023/07/10 11:02:20;;;;;;;2.30;1.10;;;30.00;93.90;;;;;;4373478;32;20070;-76
2023/07/10 11:04:54;;;;;;;0.47;0.47;;;30.20;93.10;;;;;;4379177;32;20101;-77
2023/07/10 11:07:22;;;;;;;0.52;0.52;;;30.20;93.00;;;;;;4381411;32;20059;-79
2023/07/10 11:09:52;;;;;;;0.95;0.60;;;30.20;93.40;;;;;;4376066;32;20115;-78
2023/07/10 11:12:21;;;;;;;1.50;0.62;;;30.20;93.10;;;;;;4384744;32;20155;-77
2023/07/10 11:14:48;;;;;;;0.93;0.70;;;30.30;93.10;;;;;;4391715;32;20589;-77
2023/07/10 11:17:14;;;;;;;7.60;1.33;;;30.20;93.90;;;;;;4391117;32;20071;-77
2023/07/10 11:19:41;;;;;;;0.40;0.40;;;30.00;93.90;;;;;;4384350;32;20071;-78
2023/07/10 11:22:11;;;;;;;0.45;0.45;;;30.00;94.20;;;;;;4384820;32;20062;-75
2023/07/10 11:24:36;;;;;;;0.50;0.50;;;29.90;93.40;;;;;;4374715;32;20062;-75
2023/07/10 11:27:15;;;;;;;0.70;0.70;;;30.30;93.30;;;;;;4376654;32;20078;-76
2023/07/10 11:29:44;;;;;;;0.47;0.43;;;30.60;93.00;;;;;;4369502;32;20131;-75
2023/07/10 11:32:15;;;;;;;0.62;0.45;;;31.10;93.20;;;;;;4376737;32;20141;-78
2023/07/10 11:35:18;;;;;;;1.65;0.80;;;31.10;93.40;;;;;;4375144;32;20382;-76
2023/07/10 11:37:49;;;;;;;0.28;0.28;;;31.00;93.70;;;;;;4377457;32;20066;-81
2023/07/10 11:40:43;;;;;;;1.35;0.90;;;31.20;94.20;;;;;;4378328;32;20095;-75
2023/07/10 11:43:30;;;;;;;2.87;0.73;;;30.90;93.70;;;;;;4389743;32;20550;-75
2023/07/10 11:46:14;;;;;;;0.20;0.20;;;30.50;93.80;;;;;;4368926;32;121758;-77
2023/07/10 11:48:54;;;;;;;0.60;0.60;;;30.40;93.50;;;;;;4376058;32;20475;-74
2023/07/10 11:51:26;;;;;;;0.60;0.60;;;30.50;93.90;;;;;;4376893;32;20071;-74
2023/07/10 11:54:10;;;;;;;1.17;0.52;;;30.80;93.00;;;;;;4379995;32;20116;-73
2023/07/10 11:56:35;;;;;;;0.40;0.40;;;31.00;92.60;;;;;;4376559;32;20086;-73
2023/07/10 11:59:20;;;;;;;1.45;0.50;;;31.30;92.90;;;;;;4379004;32;20102;-75
2023/07/10 12:01:45;;;;;;;0.68;0.45;;;31.80;92.40;;;;;;4381839;32;20173;-75
2023/07/10 12:04:15;;;;;;;3.47;1.05;;;32.40;91.40;;;;;;4378812;32;20094;-77
2023/07/10 12:06:48;;;;;;;0.65;0.45;;;32.40;91.50;;;;;;4383883;32;20376;-74
2023/07/10 12:09:14;;;;;;;0.93;0.52;;;32.10;91.50;;;;;;4383169;32;20158;-74
2023/07/10 12:11:40;;;;;;;0.20;0.20;;;32.00;92.00;;;;;;4380257;32;20085;-74
2023/07/10 12:14:16;;;;;;;0.82;0.65;;;32.00;92.00;;;;;;4383842;32;20070;-74
2023/07/10 12:16:55;;;;;;;1.08;0.75;;;31.80;92.30;;;;;;4384590;32;20104;-74
2023/07/10 12:19:26;;;;;;;0.57;0.50;;;31.70;92.50;;;;;;4382491;32;20402;-74
2023/07/10 12:21:51;;;;;;;0.45;0.45;;;31.80;93.00;;;;;;4381435;32;20081;-74
2023/07/10 12:24:17;;;;;;;0.52;0.52;;;32.40;92.80;;;;;;4381542;32;20447;-75
2023/07/10 12:26:43;;;;;;;0.32;0.32;;;32.50;92.40;;;;;;4369956;32;20111;-75
2023/07/10 12:29:13;;;;;;;0.60;0.60;;;32.80;92.10;;;;;;4382426;32;20655;-75
2023/07/10 12:31:40;;;;;;;2.90;0.88;;;32.70;92.30;;;;;;4384227;32;20525;-74
2023/07/10 12:34:05;;;;;;;0.40;0.40;;;32.90;91.90;;;;;;4379448;32;20134;-76
2023/07/10 12:36:35;;;;;;;0.45;0.40;;;32.80;92.10;;;;;;4377715;32;20117;-75
2023/07/10 12:39:04;;;;;;;0.30;0.30;;;32.90;92.40;;;;;;4384955;32;20446;-75
2023/07/10 12:41:37;;;;;;;1.08;0.47;;;32.70;93.60;;;;;;4382458;32;20514;-74
2023/07/10 12:44:05;;;;;;;1.12;0.60;;;32.10;94.80;;;;;;4386542;32;20062;-75
2023/07/10 12:46:31;;;;;;;0.30;0.30;;;31.60;95.40;;;;;;4378710;32;20300;-73
2023/07/10 12:49:01;;;;;;;0.82;0.40;;;30.90;96.00;;;;;;4387225;32;20081;-74
2023/07/10 12:51:31;;;;;;;0.88;0.55;;;30.50;96.80;;;;;;4377245;32;20081;-73
2023/07/10 12:54:00;;;;;;;0.10;0.10;;;30.00;97.70;;;;;;4376192;32;20130;-74
2023/07/10 12:56:30;;;;;;;0.98;0.57;;;30.20;97.30;;;;;;4381470;32;20451;-74
2023/07/10 12:59:05;;;;;;;1.67;0.85;;;30.20;97.50;;;;;;4377027;32;20106;-74